sensor_id;sensor_type;location;lat;lon;timestamp;temperature;humidity
38084;DHT22;23894;51.466;7.444;2022-12-13T00:00:06;-3.10;99.90
38084;DHT22;23894;51.466;7.444;2022-12-13T00:02:07;-3.10;99.90
38084;DHT22;23894;51.466;7.444;2022-12-13T00:04:10;-3.10;99.90
38084;DHT22;23894;51.466;7.444;2022-12-13T00:06:11;-3.10;99.90
38084;DHT22;23894;51.466;7.444;2022-12-13T00:08:13;-3.10;99.90
38084;DHT22;23894;51.466;7.444;2022-12-13T00:10:14;-3.10;99.90
38084;DHT22;23894;51.466;7.444;2022-12-13T00:12:15;-3.10;99.90
38084;DHT22;23894;51.466;7.444;2022-12-13T00:14:17;-3.10;99.90
38084;DHT22;23894;51.466;7.444;2022-12-13T00:16:21;-3.20;99.90
38084;DHT22;23894;51.466;7.444;2022-12-13T00:18:24;-3.20;99.90
38084;DHT22;23894;51.466;7.444;2022-12-13T00:20:25;-3.20;99.90
38084;DHT22;23894;51.466;7.444;2022-12-13T00:22:27;-3.20;99.90
38084;DHT22;23894;51.466;7.444;2022-12-13T00:24:28;-3.20;99.90
38084;DHT22;23894;51.466;7.444;2022-12-13T00:26:30;-3.20;99.90
38084;DHT22;23894;51.466;7.444;2022-12-13T00:28:32;-3.20;99.90
38084;DHT22;23894;51.466;7.444;2022-12-13T00:30:34;-3.20;99.90
38084;DHT22;23894;51.466;7.444;2022-12-13T00:32:35;-3.20;99.90
38084;DHT22;23894;51.466;7.444;2022-12-13T00:34:35;-3.20;99.90
38084;DHT22;23894;51.466;7.444;2022-12-13T00:36:36;-3.20;99.90
38084;DHT22;23894;51.466;7.444;2022-12-13T00:38:37;-3.20;99.90
38084;DHT22;23894;51.466;7.444;2022-12-13T00:40:38;-3.30;99.90
38084;DHT22;23894;51.466;7.444;2022-12-13T00:42:38;-3.30;99.90
38084;DHT22;23894;51.466;7.444;2022-12-13T00:44:39;-3.40;99.90
38084;DHT22;23894;51.466;7.444;2022-12-13T00:46:40;-3.30;99.90
38084;DHT22;23894;51.466;7.444;2022-12-13T00:48:41;-3.40;99.90
38084;DHT22;23894;51.466;7.444;2022-12-13T00:50:42;-3.40;99.90
38084;DHT22;23894;51.466;7.444;2022-12-13T00:52:43;-3.40;99.90
38084;DHT22;23894;51.466;7.444;2022-12-13T00:54:43;-3.40;99.90
38084;DHT22;23894;51.466;7.444;2022-12-13T00:56:44;-3.40;99.90
38084;DHT22;23894;51.466;7.444;2022-12-13T00:58:45;-3.40;99.90
38084;DHT22;23894;51.466;7.444;2022-12-13T01:00:45;-3.40;99.90
38084;DHT22;23894;51.466;7.444;2022-12-13T01:02:47;-3.40;99.90
38084;DHT22;23894;51.466;7.444;2022-12-13T01:04:51;-3.40;99.90
38084;DHT22;23894;51.466;7.444;2022-12-13T01:06:51;-3.40;99.90
38084;DHT22;23894;51.466;7.444;2022-12-13T01:08:53;-3.40;99.90
38084;DHT22;23894;51.466;7.444;2022-12-13T01:10:54;-3.40;99.90
38084;DHT22;23894;51.466;7.444;2022-12-13T01:12:54;-3.40;99.90
38084;DHT22;23894;51.466;7.444;2022-12-13T01:14:55;-3.50;99.90
38084;DHT22;23894;51.466;7.444;2022-12-13T01:16:57;-3.50;99.90
38084;DHT22;23894;51.466;7.444;2022-12-13T01:18:58;-3.50;99.90
38084;DHT22;23894;51.466;7.444;2022-12-13T01:21:13;-3.50;99.90
38084;DHT22;23894;51.466;7.444;2022-12-13T01:23:14;-3.50;99.90
38084;DHT22;23894;51.466;7.444;2022-12-13T01:25:14;-3.60;99.90
38084;DHT22;23894;51.466;7.444;2022-12-13T01:27:15;-3.60;99.90
38084;DHT22;23894;51.466;7.444;2022-12-13T01:29:16;-3.60;99.90
38084;DHT22;23894;51.466;7.444;2022-12-13T01:31:18;-3.70;99.90
38084;DHT22;23894;51.466;7.444;2022-12-13T01:33:20;-3.60;99.90
38084;DHT22;23894;51.466;7.444;2022-12-13T01:35:21;-3.70;99.90
38084;DHT22;23894;51.466;7.444;2022-12-13T01:37:21;-3.70;99.90
38084;DHT22;23894;51.466;7.444;2022-12-13T01:39:22;-3.70;99.90
38084;DHT22;23894;51.466;7.444;2022-12-13T01:41:23;-3.70;99.90
38084;DHT22;23894;51.466;7.444;2022-12-13T01:43:27;-3.70;99.90
38084;DHT22;23894;51.466;7.444;2022-12-13T01:45:28;-3.70;99.90
38084;DHT22;23894;51.466;7.444;2022-12-13T01:49:43;-3.70;99.90
38084;DHT22;23894;51.466;7.444;2022-12-13T01:52:02;-3.70;99.90
38084;DHT22;23894;51.466;7.444;2022-12-13T01:54:09;-3.70;99.90
38084;DHT22;23894;51.466;7.444;2022-12-13T01:56:17;-3.70;99.90
38084;DHT22;23894;51.466;7.444;2022-12-13T01:58:19;-3.70;99.90
38084;DHT22;23894;51.466;7.444;2022-12-13T02:00:24;-3.80;99.90
38084;DHT22;23894;51.466;7.444;2022-12-13T02:02:24;-3.70;99.90
38084;DHT22;23894;51.466;7.444;2022-12-13T02:04:29;-3.80;99.90
38084;DHT22;23894;51.466;7.444;2022-12-13T02:06:40;-3.80;99.90
38084;DHT22;23894;51.466;7.444;2022-12-13T02:08:44;-3.90;99.90
38084;DHT22;23894;51.466;7.444;2022-12-13T02:10:46;-3.90;99.90
38084;DHT22;23894;51.466;7.444;2022-12-13T02:12:49;-3.90;99.90
38084;DHT22;23894;51.466;7.444;2022-12-13T02:14:50;-3.90;99.90
38084;DHT22;23894;51.466;7.444;2022-12-13T02:17:12;-3.90;99.90
38084;DHT22;23894;51.466;7.444;2022-12-13T02:30:20;-4.00;99.90
38084;DHT22;23894;51.466;7.444;2022-12-13T02:34:54;-4.10;99.90
38084;DHT22;23894;51.466;7.444;2022-12-13T02:37:33;-4.10;99.90
38084;DHT22;23894;51.466;7.444;2022-12-13T02:39:41;-4.10;99.90
38084;DHT22;23894;51.466;7.444;2022-12-13T02:41:54;-4.10;99.90
38084;DHT22;23894;51.466;7.444;2022-12-13T02:44:11;-4.10;99.90
38084;DHT22;23894;51.466;7.444;2022-12-13T02:46:17;-4.10;99.90
38084;DHT22;23894;51.466;7.444;2022-12-13T02:48:35;-4.10;99.90
38084;DHT22;23894;51.466;7.444;2022-12-13T02:50:37;-4.10;99.90
38084;DHT22;23894;51.466;7.444;2022-12-13T02:52:40;-4.10;99.90
38084;DHT22;23894;51.466;7.444;2022-12-13T02:54:43;-4.20;99.90
38084;DHT22;23894;51.466;7.444;2022-12-13T02:57:27;-4.20;99.90
38084;DHT22;23894;51.466;7.444;2022-12-13T02:59:36;-4.20;99.90
38084;DHT22;23894;51.466;7.444;2022-12-13T03:01:53;-4.20;99.90
38084;DHT22;23894;51.466;7.444;2022-12-13T03:07:13;-4.20;99.90
38084;DHT22;23894;51.466;7.444;2022-12-13T03:11:06;-4.20;99.90
38084;DHT22;23894;51.466;7.444;2022-12-13T03:13:13;-4.20;99.90
38084;DHT22;23894;51.466;7.444;2022-12-13T03:15:59;-4.20;99.90
38084;DHT22;23894;51.466;7.444;2022-12-13T03:18:21;-4.20;99.90
38084;DHT22;23894;51.466;7.444;2022-12-13T03:20:25;-4.30;99.90
38084;DHT22;23894;51.466;7.444;2022-12-13T03:22:27;-4.30;99.90
38084;DHT22;23894;51.466;7.444;2022-12-13T03:24:27;-4.30;99.90
38084;DHT22;23894;51.466;7.444;2022-12-13T03:26:28;-4.30;99.90
38084;DHT22;23894;51.466;7.444;2022-12-13T03:28:29;-4.30;99.90
38084;DHT22;23894;51.466;7.444;2022-12-13T03:30:31;-4.30;99.90
38084;DHT22;23894;51.466;7.444;2022-12-13T03:32:32;-4.30;99.90
38084;DHT22;23894;51.466;7.444;2022-12-13T03:34:32;-4.30;99.90
38084;DHT22;23894;51.466;7.444;2022-12-13T03:36:33;-4.30;99.90
38084;DHT22;23894;51.466;7.444;2022-12-13T03:38:34;-4.30;99.90
38084;DHT22;23894;51.466;7.444;2022-12-13T03:40:35;-4.30;99.90
38084;DHT22;23894;51.466;7.444;2022-12-13T03:42:36;-4.30;99.90
38084;DHT22;23894;51.466;7.444;2022-12-13T03:44:37;-4.30;99.90
38084;DHT22;23894;51.466;7.444;2022-12-13T03:46:38;-4.30;99.90
38084;DHT22;23894;51.466;7.444;2022-12-13T03:48:39;-4.30;99.90
38084;DHT22;23894;51.466;7.444;2022-12-13T03:50:40;-4.30;99.90
38084;DHT22;23894;51.466;7.444;2022-12-13T03:52:42;-4.30;99.90
38084;DHT22;23894;51.466;7.444;2022-12-13T03:54:43;-4.30;99.90
38084;DHT22;23894;51.466;7.444;2022-12-13T03:56:44;-4.30;99.90
38084;DHT22;23894;51.466;7.444;2022-12-13T03:58:44;-4.30;99.90
38084;DHT22;23894;51.466;7.444;2022-12-13T04:00:45;-4.30;99.90
38084;DHT22;23894;51.466;7.444;2022-12-13T04:02:46;-4.30;99.90
38084;DHT22;23894;51.466;7.444;2022-12-13T04:04:46;-4.30;99.90
38084;DHT22;23894;51.466;7.444;2022-12-13T04:06:47;-4.30;99.90
38084;DHT22;23894;51.466;7.444;2022-12-13T04:08:47;-4.30;99.90
38084;DHT22;23894;51.466;7.444;2022-12-13T04:10:48;-4.30;99.90
38084;DHT22;23894;51.466;7.444;2022-12-13T04:12:48;-4.30;99.90
38084;DHT22;23894;51.466;7.444;2022-12-13T04:15:08;-4.30;99.90
38084;DHT22;23894;51.466;7.444;2022-12-13T04:17:09;-4.30;99.90
38084;DHT22;23894;51.466;7.444;2022-12-13T04:19:09;-4.30;99.90
38084;DHT22;23894;51.466;7.444;2022-12-13T04:21:10;-4.30;99.90
38084;DHT22;23894;51.466;7.444;2022-12-13T04:23:10;-4.30;99.90
38084;DHT22;23894;51.466;7.444;2022-12-13T04:25:11;-4.30;99.90
38084;DHT22;23894;51.466;7.444;2022-12-13T04:27:11;-4.30;99.90
38084;DHT22;23894;51.466;7.444;2022-12-13T04:29:12;-4.30;99.90
38084;DHT22;23894;51.466;7.444;2022-12-13T04:31:13;-4.30;99.90
38084;DHT22;23894;51.466;7.444;2022-12-13T04:33:13;-4.30;99.90
38084;DHT22;23894;51.466;7.444;2022-12-13T04:35:14;-4.30;99.90
38084;DHT22;23894;51.466;7.444;2022-12-13T04:37:14;-4.40;99.90
38084;DHT22;23894;51.466;7.444;2022-12-13T04:39:15;-4.40;99.90
38084;DHT22;23894;51.466;7.444;2022-12-13T04:41:17;-4.40;99.90
38084;DHT22;23894;51.466;7.444;2022-12-13T04:43:18;-4.50;99.90
38084;DHT22;23894;51.466;7.444;2022-12-13T04:45:20;-4.50;99.90
38084;DHT22;23894;51.466;7.444;2022-12-13T04:47:20;-4.50;99.90
38084;DHT22;23894;51.466;7.444;2022-12-13T04:49:21;-4.50;99.90
38084;DHT22;23894;51.466;7.444;2022-12-13T04:51:22;-4.50;99.90
38084;DHT22;23894;51.466;7.444;2022-12-13T04:53:22;-4.50;99.90
38084;DHT22;23894;51.466;7.444;2022-12-13T04:55:23;-4.50;99.90
38084;DHT22;23894;51.466;7.444;2022-12-13T04:57:24;-4.50;99.90
38084;DHT22;23894;51.466;7.444;2022-12-13T04:59:24;-4.50;99.90
38084;DHT22;23894;51.466;7.444;2022-12-13T05:01:26;-4.50;99.90
38084;DHT22;23894;51.466;7.444;2022-12-13T05:03:27;-4.50;99.90
38084;DHT22;23894;51.466;7.444;2022-12-13T05:05:28;-4.50;99.90
38084;DHT22;23894;51.466;7.444;2022-12-13T05:07:28;-4.60;99.90
38084;DHT22;23894;51.466;7.444;2022-12-13T05:09:29;-4.50;99.90
38084;DHT22;23894;51.466;7.444;2022-12-13T05:11:30;-4.60;99.90
38084;DHT22;23894;51.466;7.444;2022-12-13T05:13:31;-4.60;99.90
38084;DHT22;23894;51.466;7.444;2022-12-13T05:15:31;-4.60;99.90
38084;DHT22;23894;51.466;7.444;2022-12-13T05:17:32;-4.60;99.90
38084;DHT22;23894;51.466;7.444;2022-12-13T05:19:33;-4.60;99.90
38084;DHT22;23894;51.466;7.444;2022-12-13T05:21:35;-4.60;99.90
38084;DHT22;23894;51.466;7.444;2022-12-13T05:23:36;-4.60;99.90
38084;DHT22;23894;51.466;7.444;2022-12-13T05:25:37;-4.60;99.90
38084;DHT22;23894;51.466;7.444;2022-12-13T05:27:37;-4.60;99.90
38084;DHT22;23894;51.466;7.444;2022-12-13T05:29:38;-4.50;99.90
38084;DHT22;23894;51.466;7.444;2022-12-13T05:31:38;-4.50;99.90
38084;DHT22;23894;51.466;7.444;2022-12-13T05:33:39;-4.60;99.90
38084;DHT22;23894;51.466;7.444;2022-12-13T05:35:40;-4.60;99.90
38084;DHT22;23894;51.466;7.444;2022-12-13T05:37:40;-4.60;99.90
38084;DHT22;23894;51.466;7.444;2022-12-13T05:39:41;-4.60;99.90
38084;DHT22;23894;51.466;7.444;2022-12-13T05:41:42;-4.60;99.90
38084;DHT22;23894;51.466;7.444;2022-12-13T05:43:43;-4.60;99.90
38084;DHT22;23894;51.466;7.444;2022-12-13T05:45:43;-4.60;99.90
38084;DHT22;23894;51.466;7.444;2022-12-13T05:47:44;-4.60;99.90
38084;DHT22;23894;51.466;7.444;2022-12-13T05:49:45;-4.70;99.90
38084;DHT22;23894;51.466;7.444;2022-12-13T05:51:45;-4.60;99.90
38084;DHT22;23894;51.466;7.444;2022-12-13T05:53:46;-4.60;99.90
38084;DHT22;23894;51.466;7.444;2022-12-13T05:55:46;-4.60;99.90
38084;DHT22;23894;51.466;7.444;2022-12-13T05:57:47;-4.60;99.90
38084;DHT22;23894;51.466;7.444;2022-12-13T05:59:47;-4.60;99.90
38084;DHT22;23894;51.466;7.444;2022-12-13T06:01:49;-4.60;99.90
38084;DHT22;23894;51.466;7.444;2022-12-13T06:03:51;-4.60;99.90
38084;DHT22;23894;51.466;7.444;2022-12-13T06:05:51;-4.70;99.90
38084;DHT22;23894;51.466;7.444;2022-12-13T06:07:54;-4.70;99.90
38084;DHT22;23894;51.466;7.444;2022-12-13T06:09:55;-4.70;99.90
38084;DHT22;23894;51.466;7.444;2022-12-13T06:11:55;-4.70;99.90
38084;DHT22;23894;51.466;7.444;2022-12-13T06:13:56;-4.70;99.90
38084;DHT22;23894;51.466;7.444;2022-12-13T06:16:02;-4.70;99.90
38084;DHT22;23894;51.466;7.444;2022-12-13T06:18:03;-4.80;99.90
38084;DHT22;23894;51.466;7.444;2022-12-13T06:20:05;-4.80;99.90
38084;DHT22;23894;51.466;7.444;2022-12-13T06:22:05;-4.80;99.90
38084;DHT22;23894;51.466;7.444;2022-12-13T06:24:06;-4.80;99.90
38084;DHT22;23894;51.466;7.444;2022-12-13T06:26:08;-4.80;99.90
38084;DHT22;23894;51.466;7.444;2022-12-13T06:28:08;-4.80;99.90
38084;DHT22;23894;51.466;7.444;2022-12-13T06:30:09;-4.80;99.90
38084;DHT22;23894;51.466;7.444;2022-12-13T06:32:10;-4.80;99.90
38084;DHT22;23894;51.466;7.444;2022-12-13T06:34:10;-4.80;99.90
38084;DHT22;23894;51.466;7.444;2022-12-13T06:36:11;-4.90;99.90
38084;DHT22;23894;51.466;7.444;2022-12-13T06:38:12;-4.90;99.90
38084;DHT22;23894;51.466;7.444;2022-12-13T06:40:13;-4.80;99.90
38084;DHT22;23894;51.466;7.444;2022-12-13T06:42:16;-4.80;99.90
38084;DHT22;23894;51.466;7.444;2022-12-13T06:44:17;-4.90;99.90
38084;DHT22;23894;51.466;7.444;2022-12-13T06:46:17;-4.90;99.90
38084;DHT22;23894;51.466;7.444;2022-12-13T06:48:18;-4.90;99.90
38084;DHT22;23894;51.466;7.444;2022-12-13T06:50:19;-4.90;99.90
38084;DHT22;23894;51.466;7.444;2022-12-13T06:52:19;-4.90;99.90
38084;DHT22;23894;51.466;7.444;2022-12-13T06:54:20;-4.90;99.90
38084;DHT22;23894;51.466;7.444;2022-12-13T06:56:20;-4.90;99.90
38084;DHT22;23894;51.466;7.444;2022-12-13T06:58:22;-4.90;99.90
38084;DHT22;23894;51.466;7.444;2022-12-13T07:00:23;-4.90;99.90
38084;DHT22;23894;51.466;7.444;2022-12-13T07:02:24;-4.90;99.90
38084;DHT22;23894;51.466;7.444;2022-12-13T07:04:24;-4.90;99.90
38084;DHT22;23894;51.466;7.444;2022-12-13T07:06:25;-4.90;99.90
38084;DHT22;23894;51.466;7.444;2022-12-13T07:08:26;-5.00;99.90
38084;DHT22;23894;51.466;7.444;2022-12-13T07:10:26;-5.00;99.90
38084;DHT22;23894;51.466;7.444;2022-12-13T07:12:27;-5.00;99.90
38084;DHT22;23894;51.466;7.444;2022-12-13T07:14:28;-5.00;99.90
38084;DHT22;23894;51.466;7.444;2022-12-13T07:16:28;-5.00;99.90
38084;DHT22;23894;51.466;7.444;2022-12-13T07:18:29;-5.00;99.90
38084;DHT22;23894;51.466;7.444;2022-12-13T07:20:29;-5.00;99.90
38084;DHT22;23894;51.466;7.444;2022-12-13T07:22:30;-5.00;99.90
38084;DHT22;23894;51.466;7.444;2022-12-13T07:24:31;-5.00;99.90
38084;DHT22;23894;51.466;7.444;2022-12-13T07:26:31;-5.00;99.90
38084;DHT22;23894;51.466;7.444;2022-12-13T07:28:36;-5.00;99.90
38084;DHT22;23894;51.466;7.444;2022-12-13T07:30:38;-5.00;99.90
38084;DHT22;23894;51.466;7.444;2022-12-13T07:32:38;-5.00;99.90
38084;DHT22;23894;51.466;7.444;2022-12-13T07:34:39;-5.00;99.90
38084;DHT22;23894;51.466;7.444;2022-12-13T07:36:39;-4.90;99.90
38084;DHT22;23894;51.466;7.444;2022-12-13T07:38:40;-4.90;99.90
38084;DHT22;23894;51.466;7.444;2022-12-13T07:40:41;-4.90;99.90
38084;DHT22;23894;51.466;7.444;2022-12-13T07:42:48;-4.90;99.90
38084;DHT22;23894;51.466;7.444;2022-12-13T07:44:49;-4.90;99.90
38084;DHT22;23894;51.466;7.444;2022-12-13T07:46:49;-4.90;99.90
38084;DHT22;23894;51.466;7.444;2022-12-13T07:48:50;-4.90;99.90
38084;DHT22;23894;51.466;7.444;2022-12-13T07:50:51;-4.90;99.90
38084;DHT22;23894;51.466;7.444;2022-12-13T07:52:52;-4.80;99.90
38084;DHT22;23894;51.466;7.444;2022-12-13T07:54:52;-4.80;99.90
38084;DHT22;23894;51.466;7.444;2022-12-13T07:56:53;-4.80;99.90
38084;DHT22;23894;51.466;7.444;2022-12-13T07:58:53;-4.80;99.90
38084;DHT22;23894;51.466;7.444;2022-12-13T08:00:59;-4.80;99.90
38084;DHT22;23894;51.466;7.444;2022-12-13T08:03:00;-4.80;99.90
38084;DHT22;23894;51.466;7.444;2022-12-13T08:05:01;-4.80;99.90
38084;DHT22;23894;51.466;7.444;2022-12-13T08:07:01;-4.80;99.90
38084;DHT22;23894;51.466;7.444;2022-12-13T08:09:05;-4.80;99.90
38084;DHT22;23894;51.466;7.444;2022-12-13T08:11:08;-4.80;99.90
38084;DHT22;23894;51.466;7.444;2022-12-13T08:13:09;-4.80;99.90
38084;DHT22;23894;51.466;7.444;2022-12-13T08:15:10;-4.80;99.90
38084;DHT22;23894;51.466;7.444;2022-12-13T08:17:10;-4.70;99.90
38084;DHT22;23894;51.466;7.444;2022-12-13T08:19:11;-4.70;99.90
38084;DHT22;23894;51.466;7.444;2022-12-13T08:21:12;-4.60;99.90
38084;DHT22;23894;51.466;7.444;2022-12-13T08:23:13;-4.60;99.90
38084;DHT22;23894;51.466;7.444;2022-12-13T08:25:13;-4.50;99.90
38084;DHT22;23894;51.466;7.444;2022-12-13T08:27:14;-4.50;99.90
38084;DHT22;23894;51.466;7.444;2022-12-13T08:29:15;-4.50;99.90
38084;DHT22;23894;51.466;7.444;2022-12-13T08:31:15;-4.40;99.90
38084;DHT22;23894;51.466;7.444;2022-12-13T08:33:16;-4.40;99.90
38084;DHT22;23894;51.466;7.444;2022-12-13T08:35:17;-4.30;99.90
38084;DHT22;23894;51.466;7.444;2022-12-13T08:37:18;-4.30;99.90
38084;DHT22;23894;51.466;7.444;2022-12-13T08:39:19;-4.20;99.90
38084;DHT22;23894;51.466;7.444;2022-12-13T08:41:19;-4.20;99.90
38084;DHT22;23894;51.466;7.444;2022-12-13T08:43:20;-4.10;99.90
38084;DHT22;23894;51.466;7.444;2022-12-13T08:45:20;-4.10;99.90
38084;DHT22;23894;51.466;7.444;2022-12-13T08:47:25;-4.00;99.90
38084;DHT22;23894;51.466;7.444;2022-12-13T08:49:25;-3.90;99.90
38084;DHT22;23894;51.466;7.444;2022-12-13T08:51:26;-3.90;99.90
38084;DHT22;23894;51.466;7.444;2022-12-13T08:53:27;-3.80;99.90
38084;DHT22;23894;51.466;7.444;2022-12-13T08:55:27;-3.70;99.90
38084;DHT22;23894;51.466;7.444;2022-12-13T08:57:28;-3.70;99.90
38084;DHT22;23894;51.466;7.444;2022-12-13T08:59:28;-3.60;99.90
38084;DHT22;23894;51.466;7.444;2022-12-13T09:01:29;-3.50;99.90
38084;DHT22;23894;51.466;7.444;2022-12-13T09:03:29;-3.50;99.90
38084;DHT22;23894;51.466;7.444;2022-12-13T09:05:30;-3.40;99.90
38084;DHT22;23894;51.466;7.444;2022-12-13T09:07:32;-3.30;99.90
38084;DHT22;23894;51.466;7.444;2022-12-13T09:09:35;-3.30;99.90
38084;DHT22;23894;51.466;7.444;2022-12-13T09:11:35;-3.20;99.90
38084;DHT22;23894;51.466;7.444;2022-12-13T09:13:37;-3.10;99.90
38084;DHT22;23894;51.466;7.444;2022-12-13T09:15:39;-3.10;99.90
38084;DHT22;23894;51.466;7.444;2022-12-13T09:17:39;-3.00;99.90
38084;DHT22;23894;51.466;7.444;2022-12-13T09:19:40;-2.90;99.90
38084;DHT22;23894;51.466;7.444;2022-12-13T09:21:41;-2.80;99.90
38084;DHT22;23894;51.466;7.444;2022-12-13T09:23:41;-2.80;99.90
38084;DHT22;23894;51.466;7.444;2022-12-13T09:25:42;-2.70;99.90
38084;DHT22;23894;51.466;7.444;2022-12-13T09:27:43;-2.60;99.90
38084;DHT22;23894;51.466;7.444;2022-12-13T09:29:43;-2.60;99.90
38084;DHT22;23894;51.466;7.444;2022-12-13T09:31:44;-2.50;99.90
38084;DHT22;23894;51.466;7.444;2022-12-13T09:33:45;-2.40;99.90
38084;DHT22;23894;51.466;7.444;2022-12-13T09:56:25;-1.60;99.90
38084;DHT22;23894;51.466;7.444;2022-12-13T09:58:28;-1.60;99.90
38084;DHT22;23894;51.466;7.444;2022-12-13T10:00:33;-1.50;99.90
38084;DHT22;23894;51.466;7.444;2022-12-13T10:02:44;-1.40;99.90
38084;DHT22;23894;51.466;7.444;2022-12-13T10:04:46;-1.30;99.90
38084;DHT22;23894;51.466;7.444;2022-12-13T10:06:50;-1.30;99.90
38084;DHT22;23894;51.466;7.444;2022-12-13T10:08:55;-1.20;99.90
38084;DHT22;23894;51.466;7.444;2022-12-13T10:10:56;-1.10;99.90
38084;DHT22;23894;51.466;7.444;2022-12-13T10:13:15;-1.00;99.90
38084;DHT22;23894;51.466;7.444;2022-12-13T10:15:18;-0.90;99.90
38084;DHT22;23894;51.466;7.444;2022-12-13T10:17:23;-0.80;99.90
38084;DHT22;23894;51.466;7.444;2022-12-13T10:19:37;-0.70;99.90
38084;DHT22;23894;51.466;7.444;2022-12-13T10:21:41;-0.60;99.90
38084;DHT22;23894;51.466;7.444;2022-12-13T10:23:42;-0.60;99.90
38084;DHT22;23894;51.466;7.444;2022-12-13T10:25:51;-0.40;99.90
38084;DHT22;23894;51.466;7.444;2022-12-13T10:27:54;-0.30;99.90
38084;DHT22;23894;51.466;7.444;2022-12-13T10:32:11;-0.20;99.90
38084;DHT22;23894;51.466;7.444;2022-12-13T10:34:33;-0.10;99.90
38084;DHT22;23894;51.466;7.444;2022-12-13T10:36:37;0.00;99.90
38084;DHT22;23894;51.466;7.444;2022-12-13T10:38:43;0.00;99.90
38084;DHT22;23894;51.466;7.444;2022-12-13T10:40:44;0.10;99.90
38084;DHT22;23894;51.466;7.444;2022-12-13T10:45:14;0.20;99.90
38084;DHT22;23894;51.466;7.444;2022-12-13T10:47:15;0.30;99.90
38084;DHT22;23894;51.466;7.444;2022-12-13T10:49:22;0.30;99.90
38084;DHT22;23894;51.466;7.444;2022-12-13T10:51:23;0.40;99.90
38084;DHT22;23894;51.466;7.444;2022-12-13T10:53:28;0.40;99.90
38084;DHT22;23894;51.466;7.444;2022-12-13T10:55:31;0.50;99.90
38084;DHT22;23894;51.466;7.444;2022-12-13T10:57:33;0.60;99.90
38084;DHT22;23894;51.466;7.444;2022-12-13T10:59:37;0.70;99.90
38084;DHT22;23894;51.466;7.444;2022-12-13T11:01:38;0.70;99.90
38084;DHT22;23894;51.466;7.444;2022-12-13T11:03:38;0.80;99.90
38084;DHT22;23894;51.466;7.444;2022-12-13T11:05:39;0.80;99.90
38084;DHT22;23894;51.466;7.444;2022-12-13T11:07:40;0.90;99.90
38084;DHT22;23894;51.466;7.444;2022-12-13T11:09:40;1.00;99.90
38084;DHT22;23894;51.466;7.444;2022-12-13T11:11:43;1.10;99.90
38084;DHT22;23894;51.466;7.444;2022-12-13T11:13:46;1.20;99.90
38084;DHT22;23894;51.466;7.444;2022-12-13T11:15:53;1.20;99.90
38084;DHT22;23894;51.466;7.444;2022-12-13T11:18:02;1.20;99.90
38084;DHT22;23894;51.466;7.444;2022-12-13T11:20:06;1.30;99.90
38084;DHT22;23894;51.466;7.444;2022-12-13T11:22:24;1.40;99.90
38084;DHT22;23894;51.466;7.444;2022-12-13T11:24:32;1.40;99.90
38084;DHT22;23894;51.466;7.444;2022-12-13T11:26:36;1.50;99.90
38084;DHT22;23894;51.466;7.444;2022-12-13T11:31:30;1.60;99.90
38084;DHT22;23894;51.466;7.444;2022-12-13T11:40:47;1.90;99.90
38084;DHT22;23894;51.466;7.444;2022-12-13T11:43:04;1.90;99.90
38084;DHT22;23894;51.466;7.444;2022-12-13T11:45:19;2.00;99.90
38084;DHT22;23894;51.466;7.444;2022-12-13T11:47:25;2.00;99.90
38084;DHT22;23894;51.466;7.444;2022-12-13T11:49:41;2.10;99.90
38084;DHT22;23894;51.466;7.444;2022-12-13T11:51:52;2.10;99.90
38084;DHT22;23894;51.466;7.444;2022-12-13T11:56:29;2.00;99.90
38084;DHT22;23894;51.466;7.444;2022-12-13T11:58:32;2.00;99.90
38084;DHT22;23894;51.466;7.444;2022-12-13T12:00:49;2.10;99.90
38084;DHT22;23894;51.466;7.444;2022-12-13T12:02:53;2.30;99.90
38084;DHT22;23894;51.466;7.444;2022-12-13T12:05:01;2.40;99.90
38084;DHT22;23894;51.466;7.444;2022-12-13T12:07:11;2.50;99.90
38084;DHT22;23894;51.466;7.444;2022-12-13T12:09:14;2.50;99.90
38084;DHT22;23894;51.466;7.444;2022-12-13T12:13:37;2.60;99.90
38084;DHT22;23894;51.466;7.444;2022-12-13T12:18:10;2.60;99.90
38084;DHT22;23894;51.466;7.444;2022-12-13T12:20:14;2.60;99.90
38084;DHT22;23894;51.466;7.444;2022-12-13T12:41:40;2.70;99.90
38084;DHT22;23894;51.466;7.444;2022-12-13T12:44:12;2.70;99.90
38084;DHT22;23894;51.466;7.444;2022-12-13T12:46:37;2.70;99.90
38084;DHT22;23894;51.466;7.444;2022-12-13T12:51:20;2.70;99.90
38084;DHT22;23894;51.466;7.444;2022-12-13T12:53:48;2.70;99.90
38084;DHT22;23894;51.466;7.444;2022-12-13T12:58:50;2.50;99.90
38084;DHT22;23894;51.466;7.444;2022-12-13T13:05:34;2.20;99.90
38084;DHT22;23894;51.466;7.444;2022-12-13T13:07:43;2.10;99.90
38084;DHT22;23894;51.466;7.444;2022-12-13T13:09:46;2.00;99.90
38084;DHT22;23894;51.466;7.444;2022-12-13T13:11:47;2.00;99.90
38084;DHT22;23894;51.466;7.444;2022-12-13T13:13:59;2.00;99.90
38084;DHT22;23894;51.466;7.444;2022-12-13T13:16:00;1.90;99.90
38084;DHT22;23894;51.466;7.444;2022-12-13T13:18:01;2.00;99.90
38084;DHT22;23894;51.466;7.444;2022-12-13T13:20:20;2.00;99.90
38084;DHT22;23894;51.466;7.444;2022-12-13T13:22:34;2.00;99.90
38084;DHT22;23894;51.466;7.444;2022-12-13T13:24:36;2.00;99.90
38084;DHT22;23894;51.466;7.444;2022-12-13T13:26:38;2.00;99.90
38084;DHT22;23894;51.466;7.444;2022-12-13T13:28:39;2.00;99.90
38084;DHT22;23894;51.466;7.444;2022-12-13T13:31:05;2.00;99.90
38084;DHT22;23894;51.466;7.444;2022-12-13T13:35:47;2.00;99.90
38084;DHT22;23894;51.466;7.444;2022-12-13T13:37:49;2.00;99.90
38084;DHT22;23894;51.466;7.444;2022-12-13T13:42:17;2.10;99.90
38084;DHT22;23894;51.466;7.444;2022-12-13T13:47:33;2.10;99.90
38084;DHT22;23894;51.466;7.444;2022-12-13T13:49:33;2.10;99.90
38084;DHT22;23894;51.466;7.444;2022-12-13T13:52:13;2.10;99.90
38084;DHT22;23894;51.466;7.444;2022-12-13T13:59:34;2.10;99.90
38084;DHT22;23894;51.466;7.444;2022-12-13T14:09:19;2.00;99.90
38084;DHT22;23894;51.466;7.444;2022-12-13T14:18:38;1.90;99.90
38084;DHT22;23894;51.466;7.444;2022-12-13T14:23:31;1.80;99.90
38084;DHT22;23894;51.466;7.444;2022-12-13T14:29:57;1.70;99.90
38084;DHT22;23894;51.466;7.444;2022-12-13T14:32:03;1.60;99.90
38084;DHT22;23894;51.466;7.444;2022-12-13T14:34:25;1.50;99.90
38084;DHT22;23894;51.466;7.444;2022-12-13T14:36:29;1.50;99.90
38084;DHT22;23894;51.466;7.444;2022-12-13T14:38:31;1.40;99.90
38084;DHT22;23894;51.466;7.444;2022-12-13T14:40:37;1.40;99.90
38084;DHT22;23894;51.466;7.444;2022-12-13T14:42:51;1.30;99.90
38084;DHT22;23894;51.466;7.444;2022-12-13T14:44:54;1.30;99.90
38084;DHT22;23894;51.466;7.444;2022-12-13T14:47:00;1.20;99.90
38084;DHT22;23894;51.466;7.444;2022-12-13T14:49:01;1.10;99.90
38084;DHT22;23894;51.466;7.444;2022-12-13T14:51:02;1.10;99.90
38084;DHT22;23894;51.466;7.444;2022-12-13T14:53:04;1.10;99.90
38084;DHT22;23894;51.466;7.444;2022-12-13T14:55:05;1.00;99.90
38084;DHT22;23894;51.466;7.444;2022-12-13T14:57:15;1.00;99.90
38084;DHT22;23894;51.466;7.444;2022-12-13T14:59:15;0.90;99.90
38084;DHT22;23894;51.466;7.444;2022-12-13T15:01:32;0.90;99.90
38084;DHT22;23894;51.466;7.444;2022-12-13T15:03:33;0.80;99.90
38084;DHT22;23894;51.466;7.444;2022-12-13T15:05:41;0.70;99.90
38084;DHT22;23894;51.466;7.444;2022-12-13T15:07:42;0.70;99.90
38084;DHT22;23894;51.466;7.444;2022-12-13T15:09:44;0.70;99.90
38084;DHT22;23894;51.466;7.444;2022-12-13T15:11:46;0.60;99.90